Time;durP1;ratioP1;P1;durP2;ratioP2;P2;SDS_P1;SDS_P2;PMS_P1;PMS_P2;Temp;Humidity;BMP_temperature;BMP_pressure;BME280_temperature;BME280_humidity;BME280_pressure;Samples;Min_cycle;Max_cycle;Signal;HPM_P1;HPM_P2
2021/07/09 00:03:04;;;;;;;13.7;11.8;;;;;;;22.95;100;98588.13;;;;
2021/07/09 00:13:04;;;;;;;16.1;12.6;;;;;;;22.93;100;98601.49;;;;
2021/07/09 00:23:05;;;;;;;14.7;12.3;;;;;;;22.81;100;98588.89;;;;
2021/07/09 00:33:05;;;;;;;13.2;11.6;;;;;;;22.78;100;98575.14;;;;
2021/07/09 00:43:05;;;;;;;14.8;11.8;;;;;;;22.78;100;98577.88;;;;
2021/07/09 00:53:05;;;;;;;15.8;11.9;;;;;;;22.72;100;98582.19;;;;
2021/07/09 01:03:07;;;;;;;15.2;10.5;;;;;;;22.66;100;98581.76;;;;
2021/07/09 01:13:06;;;;;;;15.7;11.9;;;;;;;22.63;100;98582.51;;;;
2021/07/09 01:23:06;;;;;;;20.5;12.2;;;;;;;22.54;100;98568.36;;;;
2021/07/09 01:33:06;;;;;;;16.5;10.9;;;;;;;22.41;100;98567.14;;;;
2021/07/09 01:43:06;;;;;;;10.6;9.3;;;;;;;22.36;100;98560.05;;;;
2021/07/09 01:53:07;;;;;;;11.8;10.3;;;;;;;22.28;100;98536.49;;;;
2021/07/09 02:03:07;;;;;;;17.5;12.8;;;;;;;22.09;100;98542.27;;;;
2021/07/09 02:13:07;;;;;;;16.3;13.5;;;;;;;21.99;100;98543.8;;;;
2021/07/09 02:23:07;;;;;;;15.3;12.5;;;;;;;21.82;100;98558.17;;;;
2021/07/09 02:33:08;;;;;;;15.1;11.7;;;;;;;21.75;100;98552.63;;;;
2021/07/09 02:43:08;;;;;;;17.2;12.3;;;;;;;21.46;100;98559.06;;;;
2021/07/09 02:53:08;;;;;;;19.3;15.4;;;;;;;21.55;100;98552.08;;;;
2021/07/09 03:03:08;;;;;;;15.4;13.6;;;;;;;21.67;100;98574.9;;;;
2021/07/09 03:13:08;;;;;;;15.8;12.4;;;;;;;21.61;100;98546.25;;;;
2021/07/09 03:23:08;;;;;;;14.4;12.9;;;;;;;21.63;100;98554.88;;;;
2021/07/09 03:33:08;;;;;;;16.2;11.9;;;;;;;21.58;100;98554.09;;;;
2021/07/09 03:43:08;;;;;;;13.5;11.7;;;;;;;21.54;100;98566.98;;;;
2021/07/09 03:53:09;;;;;;;17.5;15.7;;;;;;;21.88;100;98564.07;;;;
2021/07/09 04:03:09;;;;;;;17.7;12.6;;;;;;;21.94;100;98562.56;;;;
2021/07/09 04:13:09;;;;;;;18.5;14.4;;;;;;;22.15;100;98557.2;;;;
2021/07/09 04:23:09;;;;;;;19;14.6;;;;;;;22.55;100;98567.98;;;;
2021/07/09 04:33:09;;;;;;;19.4;15.4;;;;;;;22.91;100;98552.39;;;;
2021/07/09 04:43:10;;;;;;;18.2;16.4;;;;;;;23.39;100;98557.57;;;;
2021/07/09 04:53:10;;;;;;;21.6;17.1;;;;;;;23.65;100;98548.14;;;;
2021/07/09 05:03:10;;;;;;;19.5;15.7;;;;;;;23.96;100;98570.11;;;;
2021/07/09 05:13:11;;;;;;;14.3;12.9;;;;;;;24.19;100;98568.92;;;;
2021/07/09 05:23:11;;;;;;;19.7;14;;;;;;;24.56;100;98555.39;;;;
2021/07/09 05:33:12;;;;;;;17.6;13.4;;;;;;;24.6;100;98569.16;;;;
2021/07/09 05:43:13;;;;;;;19.8;14.4;;;;;;;24.97;100;98550.06;;;;
2021/07/09 05:53:13;;;;;;;17.2;12.5;;;;;;;25.29;100;98547.09;;;;
2021/07/09 06:03:14;;;;;;;18.3;13.4;;;;;;;25.69;100;98548.34;;;;
2021/07/09 06:13:15;;;;;;;16.5;13.6;;;;;;;26.23;100;98539.13;;;;
2021/07/09 06:23:15;;;;;;;18.4;12.3;;;;;;;26.24;100;98535.16;;;;
2021/07/09 06:33:16;;;;;;;15.6;12.9;;;;;;;26.66;100;98538.61;;;;
2021/07/09 06:43:17;;;;;;;20.6;11.6;;;;;;;27.21;100;98544.54;;;;
2021/07/09 06:53:18;;;;;;;13.4;11.4;;;;;;;27.29;100;98545.19;;;;
2021/07/09 07:03:19;;;;;;;22.2;14.8;;;;;;;27.57;100;98532.89;;;;
2021/07/09 07:13:20;;;;;;;17;11.8;;;;;;;27.99;100;98521.05;;;;
2021/07/09 07:23:21;;;;;;;14.6;9.9;;;;;;;28.31;100;98512.91;;;;
2021/07/09 07:33:22;;;;;;;14.1;11.8;;;;;;;28.61;100;98517.41;;;;
2021/07/09 07:43:23;;;;;;;12.8;10.9;;;;;;;28.95;100;98517.86;;;;
2021/07/09 07:53:24;;;;;;;25.2;12;;;;;;;29.17;100;98482.05;;;;
2021/07/09 08:03:25;;;;;;;12.1;9.7;;;;;;;29.58;100;98470.31;;;;
2021/07/09 08:13:26;;;;;;;12.1;10.2;;;;;;;29.91;100;98469.05;;;;
2021/07/09 08:23:28;;;;;;;13.5;10.4;;;;;;;30.11;100;98476.44;;;;
2021/07/09 08:33:29;;;;;;;13.4;9.7;;;;;;;30.23;96.46875;98470.14;;;;
2021/07/09 08:43:31;;;;;;;12.4;9.4;;;;;;;30.3;95.13477;98469.94;;;;
2021/07/09 08:53:32;;;;;;;13.2;8.9;;;;;;;30.64;91.91602;98463.77;;;;
2021/07/09 09:03:33;;;;;;;10.5;8.4;;;;;;;30.71;91.98926;98452.42;;;;
2021/07/09 09:13:35;;;;;;;12.5;9.4;;;;;;;31.08;90.93555;98443.28;;;;
2021/07/09 09:23:36;;;;;;;12.4;8.9;;;;;;;31;89.90527;98457.89;;;;
2021/07/09 09:33:38;;;;;;;13.6;9.2;;;;;;;31.35;87.86523;98456.69;;;;
2021/07/09 09:43:40;;;;;;;9.9;7.7;;;;;;;31.82;88.15625;98460.25;;;;
2021/07/09 09:53:41;;;;;;;11.2;9.1;;;;;;;31.78;90.12988;98434.5;;;;
2021/07/09 10:03:43;;;;;;;9.5;7.8;;;;;;;32.46;87.18066;98404.86;;;;
2021/07/09 10:13:45;;;;;;;11.7;6.4;;;;;;;32.15;83.74219;98429.19;;;;
2021/07/09 10:23:47;;;;;;;15.1;8.9;;;;;;;31.51;84.50977;98423.14;;;;
2021/07/09 10:33:48;;;;;;;16.8;9.1;;;;;;;31.94;84.25977;98420.36;;;;
2021/07/09 10:43:50;;;;;;;27.8;11.3;;;;;;;32.51;82.38672;98421.02;;;;
2021/07/09 10:53:52;;;;;;;21;9.3;;;;;;;33;81.4209;98420.27;;;;
2021/07/09 11:03:53;;;;;;;15.5;9.3;;;;;;;33.47;86.54102;98403.12;;;;
2021/07/09 11:13:59;;;;;;;13.7;9.7;;;;;;;32.14;91.79102;98396.98;;;;
2021/07/09 11:23:57;;;;;;;11.1;8.8;;;;;;;31.57;96.35156;98407.4;;;;
2021/07/09 11:33:58;;;;;;;25.3;13.4;;;;;;;31.71;95.2041;98423.61;;;;
2021/07/09 11:44:00;;;;;;;14.1;8.3;;;;;;;29.42;100;98425.92;;;;
2021/07/09 11:54:01;;;;;;;7.1;5;;;;;;;27.58;95.0498;98413.42;;;;
2021/07/09 12:04:03;;;;;;;9.5;4.8;;;;;;;26.39;95.8584;98414.17;;;;
2021/07/09 12:14:04;;;;;;;7;4.4;;;;;;;25.7;99.03223;98541.63;;;;
2021/07/09 12:24:04;;;;;;;11.1;6.4;;;;;;;21.67;100;98444.02;;;;
2021/07/09 12:34:05;;;;;;;9.8;5.4;;;;;;;19.2;100;98430.45;;;;
2021/07/09 12:44:05;;;;;;;7.4;3.3;;;;;;;19.06;100;98450.95;;;;
2021/07/09 12:54:04;;;;;;;9.1;5.3;;;;;;;19.39;100;98461.22;;;;
2021/07/09 13:04:04;;;;;;;6.5;4.2;;;;;;;19.76;100;98447.69;;;;
2021/07/09 13:14:04;;;;;;;10.3;6.2;;;;;;;20.19;100;98445.48;;;;
2021/07/09 13:24:04;;;;;;;7.8;6.6;;;;;;;20.89;100;98404.33;;;;
2021/07/09 13:34:04;;;;;;;11.8;7.6;;;;;;;21.14;100;98429.2;;;;
2021/07/09 13:44:04;;;;;;;11.8;8.1;;;;;;;21.82;100;98481.34;;;;
2021/07/09 13:54:05;;;;;;;11.6;8.5;;;;;;;22.77;100;98486.41;;;;
2021/07/09 14:04:05;;;;;;;10.3;8;;;;;;;24.41;100;98474.77;;;;
2021/07/09 14:14:05;;;;;;;10.6;8;;;;;;;24.86;100;98497.75;;;;
2021/07/09 14:24:06;;;;;;;10.1;7.9;;;;;;;25.45;100;98492.15;;;;
2021/07/09 14:34:07;;;;;;;9.6;6.6;;;;;;;26.23;100;98483.88;;;;
2021/07/09 14:44:08;;;;;;;9.3;7;;;;;;;26.5;100;98506.02;;;;
2021/07/09 14:54:08;;;;;;;13.7;6.2;;;;;;;26.68;100;98498.27;;;;
2021/07/09 15:04:09;;;;;;;9.4;5.6;;;;;;;26.94;100;98488.42;;;;
2021/07/09 15:14:10;;;;;;;17.2;7.2;;;;;;;28.28;100;98493.58;;;;
2021/07/09 15:24:12;;;;;;;9.3;6.5;;;;;;;29.97;100;98455.39;;;;
2021/07/09 15:34:13;;;;;;;8.5;5.7;;;;;;;30.76;100;98443.5;;;;
2021/07/09 15:44:15;;;;;;;8.3;5.8;;;;;;;30.77;100;98439.5;;;;
2021/07/09 15:54:18;;;;;;;7.6;4.2;;;;;;;31.81;99.4502;98455.89;;;;
2021/07/09 16:04:18;;;;;;;7.6;5.3;;;;;;;30.79;100;98429.47;;;;
2021/07/09 16:14:20;;;;;;;8.7;5.3;;;;;;;31.76;98.90918;98434.16;;;;
2021/07/09 16:24:22;;;;;;;8.5;4.9;;;;;;;33.32;85.875;98465.2;;;;
2021/07/09 16:34:24;;;;;;;12.4;5.7;;;;;;;33.07;88.01758;98451.48;;;;
2021/07/09 16:44:26;;;;;;;13.9;5.4;;;;;;;31.8;90.73535;98465.48;;;;
2021/07/09 16:54:28;;;;;;;13.3;7.8;;;;;;;28.63;100;98495.59;;;;
2021/07/09 17:04:29;;;;;;;14.3;10.8;;;;;;;26.52;100;98545.08;;;;
2021/07/09 17:14:30;;;;;;;13.6;10.6;;;;;;;25.28;100;98549.06;;;;
2021/07/09 17:24:32;;;;;;;11.4;8.9;;;;;;;24.83;100;98539.13;;;;
2021/07/09 17:34:32;;;;;;;13.1;10.5;;;;;;;23.89;100;98548.11;;;;
2021/07/09 17:44:33;;;;;;;14.8;10.1;;;;;;;23.44;100;98568.98;;;;
2021/07/09 17:54:35;;;;;;;12;9.5;;;;;;;23.27;100;98568.94;;;;
2021/07/09 18:04:34;;;;;;;8.6;7;;;;;;;22.59;100;98604.47;;;;
2021/07/09 18:14:34;;;;;;;10.4;8.6;;;;;;;21.82;100;98607.56;;;;
2021/07/09 18:24:34;;;;;;;13.7;9.1;;;;;;;21.67;100;98618.78;;;;
2021/07/09 18:34:35;;;;;;;14.4;9.4;;;;;;;21.61;100;98610.13;;;;
2021/07/09 18:44:35;;;;;;;15.2;9.2;;;;;;;21.53;100;98628.48;;;;
2021/07/09 18:54:35;;;;;;;11.4;8.2;;;;;;;21.52;100;98646.09;;;;
2021/07/09 19:04:35;;;;;;;16.4;11.1;;;;;;;21.39;100;98664;;;;
2021/07/09 19:14:36;;;;;;;10;7.9;;;;;;;21.27;100;98680.73;;;;
2021/07/09 19:24:36;;;;;;;12.8;7;;;;;;;21.23;100;98698.3;;;;
2021/07/09 19:34:36;;;;;;;9.7;5.7;;;;;;;21.13;100;98705.23;;;;
2021/07/09 19:44:36;;;;;;;10.6;6.3;;;;;;;21.07;100;98692.98;;;;
2021/07/09 19:54:36;;;;;;;7.8;4.2;;;;;;;21;100;98690.16;;;;
2021/07/09 20:04:36;;;;;;;9.6;4.9;;;;;;;20.88;100;98660.27;;;;
2021/07/09 20:14:37;;;;;;;8.2;4.7;;;;;;;20.7;100;98654.58;;;;
2021/07/09 20:24:37;;;;;;;7.2;4.5;;;;;;;20.5;100;98653.15;;;;
2021/07/09 20:34:37;;;;;;;6.6;4.5;;;;;;;20.36;100;98651.02;;;;
2021/07/09 20:44:37;;;;;;;8.3;5;;;;;;;20.4;100;98640.11;;;;
2021/07/09 20:54:37;;;;;;;10;4.4;;;;;;;20.23;100;98632.41;;;;
2021/07/09 21:04:37;;;;;;;10.1;4.7;;;;;;;20.17;100;98663.97;;;;
2021/07/09 21:14:37;;;;;;;9.4;4.2;;;;;;;20.26;100;98678.2;;;;
2021/07/09 21:24:37;;;;;;;7.7;4.4;;;;;;;20.28;100;98670.42;;;;
2021/07/09 21:34:37;;;;;;;8.7;5.4;;;;;;;20.05;100;98679.47;;;;
2021/07/09 21:44:38;;;;;;;6.6;4.3;;;;;;;19.8;100;98672.8;;;;
2021/07/09 21:54:38;;;;;;;7.2;4.3;;;;;;;19.74;100;98682.47;;;;
2021/07/09 22:04:38;;;;;;;9.4;4.4;;;;;;;19.67;100;98673.36;;;;
2021/07/09 22:14:38;;;;;;;8.2;4;;;;;;;19.65;100;98681.11;;;;
2021/07/09 22:24:38;;;;;;;6.3;3.2;;;;;;;19.6;100;98690.43;;;;
2021/07/09 22:34:38;;;;;;;6.6;3.6;;;;;;;19.58;100;98709.13;;;;
2021/07/09 22:44:38;;;;;;;7.6;3.2;;;;;;;19.57;100;98734.91;;;;
2021/07/09 22:54:38;;;;;;;6.5;3.2;;;;;;;19.45;100;98735.86;;;;
2021/07/09 23:04:38;;;;;;;7.1;3;;;;;;;19.39;100;98748.21;;;;
2021/07/09 23:14:38;;;;;;;3.2;1.2;;;;;;;19.31;100;98719.16;;;;
2021/07/09 23:24:38;;;;;;;6.8;2.5;;;;;;;19.22;100;98777.92;;;;
2021/07/09 23:34:38;;;;;;;6.3;2.2;;;;;;;19.13;100;98780.06;;;;
2021/07/09 23:44:38;;;;;;;5;1.6;;;;;;;19.1;100;98754.25;;;;
2021/07/09 23:54:37;;;;;;;4.5;1.5;;;;;;;19;100;98744.7;;;;
